sensor_id;sensor_type;location;lat;lon;timestamp;P1;durP1;ratioP1;P2;durP2;ratioP2
3629;SDS011;1831;53.626;10.012;2022-08-21T00:00:21;8.70;;;4.90;;
3629;SDS011;1831;53.626;10.012;2022-08-21T00:02:50;9.67;;;4.83;;
3629;SDS011;1831;53.626;10.012;2022-08-21T00:05:19;7.33;;;4.70;;
3629;SDS011;1831;53.626;10.012;2022-08-21T00:07:48;7.37;;;5.20;;
3629;SDS011;1831;53.626;10.012;2022-08-21T00:10:15;7.90;;;4.37;;
3629;SDS011;1831;53.626;10.012;2022-08-21T00:12:43;6.70;;;4.43;;
3629;SDS011;1831;53.626;10.012;2022-08-21T00:15:13;6.77;;;4.30;;
3629;SDS011;1831;53.626;10.012;2022-08-21T00:17:42;7.23;;;5.13;;
3629;SDS011;1831;53.626;10.012;2022-08-21T00:20:09;8.47;;;4.40;;
3629;SDS011;1831;53.626;10.012;2022-08-21T00:22:38;6.83;;;4.70;;
3629;SDS011;1831;53.626;10.012;2022-08-21T00:25:07;11.07;;;5.07;;
3629;SDS011;1831;53.626;10.012;2022-08-21T00:27:34;10.13;;;5.20;;
3629;SDS011;1831;53.626;10.012;2022-08-21T00:30:02;7.67;;;4.77;;
3629;SDS011;1831;53.626;10.012;2022-08-21T00:32:30;6.73;;;4.07;;
3629;SDS011;1831;53.626;10.012;2022-08-21T00:34:57;7.70;;;4.20;;
3629;SDS011;1831;53.626;10.012;2022-08-21T00:37:25;6.00;;;4.10;;
3629;SDS011;1831;53.626;10.012;2022-08-21T00:39:52;6.30;;;4.20;;
3629;SDS011;1831;53.626;10.012;2022-08-21T00:42:20;6.50;;;3.70;;
3629;SDS011;1831;53.626;10.012;2022-08-21T00:44:48;8.60;;;4.00;;
3629;SDS011;1831;53.626;10.012;2022-08-21T00:47:16;8.90;;;4.10;;
3629;SDS011;1831;53.626;10.012;2022-08-21T00:49:43;6.70;;;3.90;;
3629;SDS011;1831;53.626;10.012;2022-08-21T00:52:11;5.93;;;3.90;;
3629;SDS011;1831;53.626;10.012;2022-08-21T00:54:43;8.03;;;3.60;;
3629;SDS011;1831;53.626;10.012;2022-08-21T00:57:13;6.73;;;4.10;;
3629;SDS011;1831;53.626;10.012;2022-08-21T00:59:44;6.30;;;3.73;;
3629;SDS011;1831;53.626;10.012;2022-08-21T01:02:15;7.10;;;4.23;;
3629;SDS011;1831;53.626;10.012;2022-08-21T01:04:43;6.23;;;3.80;;
3629;SDS011;1831;53.626;10.012;2022-08-21T01:07:10;6.00;;;3.53;;
3629;SDS011;1831;53.626;10.012;2022-08-21T01:09:38;5.90;;;3.83;;
3629;SDS011;1831;53.626;10.012;2022-08-21T01:12:05;6.43;;;3.70;;
3629;SDS011;1831;53.626;10.012;2022-08-21T01:14:33;7.30;;;4.00;;
3629;SDS011;1831;53.626;10.012;2022-08-21T01:17:01;7.70;;;3.70;;
3629;SDS011;1831;53.626;10.012;2022-08-21T01:19:30;10.80;;;4.07;;
3629;SDS011;1831;53.626;10.012;2022-08-21T01:21:58;5.97;;;3.87;;
3629;SDS011;1831;53.626;10.012;2022-08-21T01:24:25;5.50;;;3.47;;
3629;SDS011;1831;53.626;10.012;2022-08-21T01:26:52;6.47;;;3.30;;
3629;SDS011;1831;53.626;10.012;2022-08-21T01:29:23;10.70;;;4.00;;
3629;SDS011;1831;53.626;10.012;2022-08-21T01:31:56;5.10;;;3.23;;
3629;SDS011;1831;53.626;10.012;2022-08-21T01:34:23;6.80;;;3.60;;
3629;SDS011;1831;53.626;10.012;2022-08-21T01:36:50;6.87;;;3.90;;
3629;SDS011;1831;53.626;10.012;2022-08-21T01:39:19;5.43;;;3.57;;
3629;SDS011;1831;53.626;10.012;2022-08-21T01:41:46;8.33;;;4.07;;
3629;SDS011;1831;53.626;10.012;2022-08-21T01:44:15;6.40;;;3.70;;
3629;SDS011;1831;53.626;10.012;2022-08-21T01:46:42;8.50;;;4.27;;
3629;SDS011;1831;53.626;10.012;2022-08-21T01:49:09;6.27;;;3.17;;
3629;SDS011;1831;53.626;10.012;2022-08-21T01:51:36;6.00;;;4.30;;
3629;SDS011;1831;53.626;10.012;2022-08-21T01:54:02;7.10;;;4.60;;
3629;SDS011;1831;53.626;10.012;2022-08-21T01:56:31;7.80;;;3.73;;
3629;SDS011;1831;53.626;10.012;2022-08-21T01:59:02;7.30;;;3.80;;
3629;SDS011;1831;53.626;10.012;2022-08-21T02:01:29;6.13;;;3.87;;
3629;SDS011;1831;53.626;10.012;2022-08-21T02:03:56;8.33;;;4.17;;
3629;SDS011;1831;53.626;10.012;2022-08-21T02:06:24;5.93;;;3.60;;
3629;SDS011;1831;53.626;10.012;2022-08-21T02:08:52;5.97;;;3.80;;
3629;SDS011;1831;53.626;10.012;2022-08-21T02:11:19;8.20;;;4.70;;
3629;SDS011;1831;53.626;10.012;2022-08-21T02:13:48;6.77;;;3.73;;
3629;SDS011;1831;53.626;10.012;2022-08-21T02:16:15;7.87;;;4.13;;
3629;SDS011;1831;53.626;10.012;2022-08-21T02:18:42;6.87;;;4.03;;
3629;SDS011;1831;53.626;10.012;2022-08-21T02:21:09;7.00;;;4.10;;
3629;SDS011;1831;53.626;10.012;2022-08-21T02:23:36;6.20;;;4.43;;
3629;SDS011;1831;53.626;10.012;2022-08-21T02:26:04;6.53;;;4.47;;
3629;SDS011;1831;53.626;10.012;2022-08-21T02:28:34;10.70;;;4.77;;
3629;SDS011;1831;53.626;10.012;2022-08-21T02:31:03;8.40;;;5.47;;
3629;SDS011;1831;53.626;10.012;2022-08-21T02:33:31;7.50;;;4.90;;
3629;SDS011;1831;53.626;10.012;2022-08-21T02:35:58;7.80;;;4.90;;
3629;SDS011;1831;53.626;10.012;2022-08-21T02:38:26;6.57;;;4.47;;
3629;SDS011;1831;53.626;10.012;2022-08-21T02:41:03;8.33;;;4.37;;
3629;SDS011;1831;53.626;10.012;2022-08-21T02:43:30;7.70;;;4.40;;
3629;SDS011;1831;53.626;10.012;2022-08-21T02:45:57;7.00;;;4.30;;
3629;SDS011;1831;53.626;10.012;2022-08-21T02:48:26;5.60;;;3.70;;
3629;SDS011;1831;53.626;10.012;2022-08-21T02:50:55;7.13;;;4.17;;
3629;SDS011;1831;53.626;10.012;2022-08-21T02:53:24;6.43;;;3.73;;
3629;SDS011;1831;53.626;10.012;2022-08-21T02:55:52;6.63;;;4.10;;
3629;SDS011;1831;53.626;10.012;2022-08-21T02:58:21;8.27;;;4.70;;
3629;SDS011;1831;53.626;10.012;2022-08-21T03:00:50;7.37;;;4.43;;
3629;SDS011;1831;53.626;10.012;2022-08-21T03:03:17;7.23;;;4.53;;
3629;SDS011;1831;53.626;10.012;2022-08-21T03:05:47;6.73;;;4.60;;
3629;SDS011;1831;53.626;10.012;2022-08-21T03:08:15;9.10;;;6.23;;
3629;SDS011;1831;53.626;10.012;2022-08-21T03:10:43;9.17;;;6.23;;
3629;SDS011;1831;53.626;10.012;2022-08-21T03:13:12;10.00;;;6.00;;
3629;SDS011;1831;53.626;10.012;2022-08-21T03:15:40;11.00;;;5.80;;
3629;SDS011;1831;53.626;10.012;2022-08-21T03:18:08;8.80;;;6.17;;
3629;SDS011;1831;53.626;10.012;2022-08-21T03:20:36;7.10;;;5.90;;
3629;SDS011;1831;53.626;10.012;2022-08-21T03:23:05;9.00;;;6.60;;
3629;SDS011;1831;53.626;10.012;2022-08-21T03:25:33;11.60;;;6.53;;
3629;SDS011;1831;53.626;10.012;2022-08-21T03:28:01;11.57;;;6.50;;
3629;SDS011;1831;53.626;10.012;2022-08-21T03:30:30;8.03;;;5.87;;
3629;SDS011;1831;53.626;10.012;2022-08-21T03:32:57;9.83;;;6.57;;
3629;SDS011;1831;53.626;10.012;2022-08-21T03:35:25;6.90;;;5.60;;
3629;SDS011;1831;53.626;10.012;2022-08-21T03:37:52;7.77;;;6.30;;
3629;SDS011;1831;53.626;10.012;2022-08-21T03:40:21;9.20;;;6.13;;
3629;SDS011;1831;53.626;10.012;2022-08-21T03:42:49;7.63;;;6.23;;
3629;SDS011;1831;53.626;10.012;2022-08-21T03:45:17;10.00;;;6.10;;
3629;SDS011;1831;53.626;10.012;2022-08-21T03:47:52;10.17;;;6.20;;
3629;SDS011;1831;53.626;10.012;2022-08-21T03:50:20;10.80;;;6.47;;
3629;SDS011;1831;53.626;10.012;2022-08-21T03:52:48;8.27;;;6.87;;
3629;SDS011;1831;53.626;10.012;2022-08-21T03:55:15;9.13;;;5.80;;
3629;SDS011;1831;53.626;10.012;2022-08-21T03:57:44;8.53;;;6.00;;
3629;SDS011;1831;53.626;10.012;2022-08-21T04:00:11;8.60;;;6.47;;
3629;SDS011;1831;53.626;10.012;2022-08-21T04:02:40;9.47;;;6.60;;
3629;SDS011;1831;53.626;10.012;2022-08-21T04:05:08;9.20;;;6.70;;
3629;SDS011;1831;53.626;10.012;2022-08-21T04:07:35;7.27;;;5.90;;
3629;SDS011;1831;53.626;10.012;2022-08-21T04:10:04;7.83;;;5.73;;
3629;SDS011;1831;53.626;10.012;2022-08-21T04:12:32;10.10;;;5.67;;
3629;SDS011;1831;53.626;10.012;2022-08-21T04:15:00;6.57;;;5.43;;
3629;SDS011;1831;53.626;10.012;2022-08-21T04:17:27;6.97;;;5.67;;
3629;SDS011;1831;53.626;10.012;2022-08-21T04:19:54;9.83;;;6.70;;
3629;SDS011;1831;53.626;10.012;2022-08-21T04:22:21;8.17;;;6.10;;
3629;SDS011;1831;53.626;10.012;2022-08-21T04:24:48;8.37;;;6.07;;
3629;SDS011;1831;53.626;10.012;2022-08-21T04:27:15;8.77;;;6.30;;
3629;SDS011;1831;53.626;10.012;2022-08-21T04:29:42;8.50;;;5.57;;
3629;SDS011;1831;53.626;10.012;2022-08-21T04:32:10;7.90;;;5.70;;
3629;SDS011;1831;53.626;10.012;2022-08-21T04:34:37;8.70;;;6.57;;
3629;SDS011;1831;53.626;10.012;2022-08-21T04:37:04;8.90;;;5.70;;
3629;SDS011;1831;53.626;10.012;2022-08-21T04:39:33;7.90;;;6.33;;
3629;SDS011;1831;53.626;10.012;2022-08-21T04:41:59;8.60;;;6.47;;
3629;SDS011;1831;53.626;10.012;2022-08-21T04:44:26;8.30;;;6.30;;
3629;SDS011;1831;53.626;10.012;2022-08-21T04:46:53;9.30;;;6.17;;
3629;SDS011;1831;53.626;10.012;2022-08-21T04:49:21;11.50;;;6.57;;
3629;SDS011;1831;53.626;10.012;2022-08-21T04:51:49;10.90;;;6.10;;
3629;SDS011;1831;53.626;10.012;2022-08-21T04:54:16;8.53;;;6.13;;
3629;SDS011;1831;53.626;10.012;2022-08-21T04:56:47;8.10;;;6.20;;
3629;SDS011;1831;53.626;10.012;2022-08-21T04:59:17;9.00;;;6.40;;
3629;SDS011;1831;53.626;10.012;2022-08-21T05:01:46;10.23;;;6.53;;
3629;SDS011;1831;53.626;10.012;2022-08-21T05:04:14;8.50;;;5.87;;
3629;SDS011;1831;53.626;10.012;2022-08-21T05:06:46;9.10;;;6.03;;
3629;SDS011;1831;53.626;10.012;2022-08-21T05:09:15;7.93;;;6.10;;
3629;SDS011;1831;53.626;10.012;2022-08-21T05:11:43;10.53;;;5.90;;
3629;SDS011;1831;53.626;10.012;2022-08-21T05:14:11;7.57;;;5.90;;
3629;SDS011;1831;53.626;10.012;2022-08-21T05:16:38;8.47;;;6.10;;
3629;SDS011;1831;53.626;10.012;2022-08-21T05:29:30;14.60;;;6.83;;
3629;SDS011;1831;53.626;10.012;2022-08-21T05:31:57;7.20;;;5.83;;
3629;SDS011;1831;53.626;10.012;2022-08-21T05:34:24;8.53;;;7.00;;
3629;SDS011;1831;53.626;10.012;2022-08-21T05:36:51;11.00;;;6.90;;
3629;SDS011;1831;53.626;10.012;2022-08-21T05:39:21;11.20;;;6.60;;
3629;SDS011;1831;53.626;10.012;2022-08-21T05:41:48;9.27;;;6.63;;
3629;SDS011;1831;53.626;10.012;2022-08-21T05:44:15;9.10;;;6.40;;
3629;SDS011;1831;53.626;10.012;2022-08-21T05:46:43;10.40;;;7.30;;
3629;SDS011;1831;53.626;10.012;2022-08-21T05:49:10;8.80;;;6.23;;
3629;SDS011;1831;53.626;10.012;2022-08-21T05:51:39;9.43;;;6.30;;
3629;SDS011;1831;53.626;10.012;2022-08-21T05:54:07;8.77;;;6.50;;
3629;SDS011;1831;53.626;10.012;2022-08-21T05:56:34;8.20;;;6.70;;
3629;SDS011;1831;53.626;10.012;2022-08-21T05:59:00;12.87;;;6.80;;
3629;SDS011;1831;53.626;10.012;2022-08-21T06:01:27;10.07;;;6.50;;
3629;SDS011;1831;53.626;10.012;2022-08-21T06:03:55;12.87;;;6.67;;
3629;SDS011;1831;53.626;10.012;2022-08-21T06:06:22;12.30;;;6.20;;
3629;SDS011;1831;53.626;10.012;2022-08-21T06:08:49;7.27;;;5.57;;
3629;SDS011;1831;53.626;10.012;2022-08-21T06:11:17;12.13;;;5.97;;
3629;SDS011;1831;53.626;10.012;2022-08-21T06:13:44;8.97;;;6.17;;
3629;SDS011;1831;53.626;10.012;2022-08-21T06:16:12;8.93;;;6.57;;
3629;SDS011;1831;53.626;10.012;2022-08-21T06:18:41;9.20;;;5.93;;
3629;SDS011;1831;53.626;10.012;2022-08-21T06:21:11;9.23;;;6.13;;
3629;SDS011;1831;53.626;10.012;2022-08-21T06:23:39;8.17;;;6.03;;
3629;SDS011;1831;53.626;10.012;2022-08-21T06:26:06;10.37;;;6.07;;
3629;SDS011;1831;53.626;10.012;2022-08-21T06:28:34;10.63;;;5.40;;
3629;SDS011;1831;53.626;10.012;2022-08-21T06:31:09;12.97;;;8.83;;
3629;SDS011;1831;53.626;10.012;2022-08-21T06:33:37;9.10;;;5.77;;
3629;SDS011;1831;53.626;10.012;2022-08-21T06:36:04;8.10;;;4.93;;
3629;SDS011;1831;53.626;10.012;2022-08-21T06:38:32;14.67;;;4.73;;
3629;SDS011;1831;53.626;10.012;2022-08-21T06:40:59;10.03;;;6.30;;
3629;SDS011;1831;53.626;10.012;2022-08-21T06:43:26;7.03;;;4.67;;
3629;SDS011;1831;53.626;10.012;2022-08-21T06:45:53;7.53;;;4.80;;
3629;SDS011;1831;53.626;10.012;2022-08-21T06:48:20;7.30;;;4.40;;
3629;SDS011;1831;53.626;10.012;2022-08-21T06:50:48;7.70;;;4.87;;
3629;SDS011;1831;53.626;10.012;2022-08-21T06:53:18;7.90;;;5.27;;
3629;SDS011;1831;53.626;10.012;2022-08-21T06:55:48;12.73;;;4.43;;
3629;SDS011;1831;53.626;10.012;2022-08-21T06:58:15;12.83;;;4.90;;
3629;SDS011;1831;53.626;10.012;2022-08-21T07:00:42;8.60;;;5.33;;
3629;SDS011;1831;53.626;10.012;2022-08-21T07:03:16;11.97;;;4.73;;
3629;SDS011;1831;53.626;10.012;2022-08-21T07:05:47;10.40;;;6.20;;
3629;SDS011;1831;53.626;10.012;2022-08-21T07:08:14;9.90;;;7.20;;
3629;SDS011;1831;53.626;10.012;2022-08-21T07:10:41;11.00;;;4.83;;
3629;SDS011;1831;53.626;10.012;2022-08-21T07:13:09;11.20;;;4.83;;
3629;SDS011;1831;53.626;10.012;2022-08-21T07:15:36;7.70;;;4.13;;
3629;SDS011;1831;53.626;10.012;2022-08-21T07:18:03;6.50;;;3.60;;
3629;SDS011;1831;53.626;10.012;2022-08-21T07:20:31;13.40;;;4.23;;
3629;SDS011;1831;53.626;10.012;2022-08-21T07:22:59;6.77;;;3.47;;
3629;SDS011;1831;53.626;10.012;2022-08-21T07:25:29;7.77;;;3.50;;
3629;SDS011;1831;53.626;10.012;2022-08-21T07:27:56;11.23;;;3.73;;
3629;SDS011;1831;53.626;10.012;2022-08-21T07:30:25;12.83;;;4.10;;
3629;SDS011;1831;53.626;10.012;2022-08-21T07:32:53;9.97;;;5.63;;
3629;SDS011;1831;53.626;10.012;2022-08-21T07:35:20;11.43;;;3.57;;
3629;SDS011;1831;53.626;10.012;2022-08-21T07:37:47;7.87;;;4.07;;
3629;SDS011;1831;53.626;10.012;2022-08-21T07:40:14;12.57;;;4.50;;
3629;SDS011;1831;53.626;10.012;2022-08-21T07:42:43;10.57;;;3.83;;
3629;SDS011;1831;53.626;10.012;2022-08-21T07:45:11;7.03;;;3.23;;
3629;SDS011;1831;53.626;10.012;2022-08-21T07:47:41;8.03;;;4.67;;
3629;SDS011;1831;53.626;10.012;2022-08-21T07:50:08;6.90;;;3.63;;
3629;SDS011;1831;53.626;10.012;2022-08-21T07:52:36;7.07;;;3.30;;
3629;SDS011;1831;53.626;10.012;2022-08-21T07:55:03;6.43;;;3.00;;
3629;SDS011;1831;53.626;10.012;2022-08-21T07:57:31;7.23;;;3.13;;
3629;SDS011;1831;53.626;10.012;2022-08-21T07:59:57;7.83;;;3.03;;
3629;SDS011;1831;53.626;10.012;2022-08-21T08:02:25;9.30;;;3.20;;
3629;SDS011;1831;53.626;10.012;2022-08-21T08:04:54;6.10;;;3.17;;
3629;SDS011;1831;53.626;10.012;2022-08-21T08:07:25;4.67;;;2.40;;
3629;SDS011;1831;53.626;10.012;2022-08-21T08:09:52;11.33;;;3.40;;
3629;SDS011;1831;53.626;10.012;2022-08-21T08:12:19;10.30;;;3.43;;
3629;SDS011;1831;53.626;10.012;2022-08-21T08:14:46;7.07;;;3.10;;
3629;SDS011;1831;53.626;10.012;2022-08-21T08:17:13;6.27;;;3.10;;
3629;SDS011;1831;53.626;10.012;2022-08-21T08:19:39;7.83;;;3.53;;
3629;SDS011;1831;53.626;10.012;2022-08-21T08:22:13;7.13;;;3.57;;
3629;SDS011;1831;53.626;10.012;2022-08-21T08:24:41;6.00;;;3.17;;
3629;SDS011;1831;53.626;10.012;2022-08-21T08:27:07;7.20;;;3.50;;
3629;SDS011;1831;53.626;10.012;2022-08-21T08:29:34;7.93;;;3.03;;
3629;SDS011;1831;53.626;10.012;2022-08-21T08:32:01;6.77;;;3.13;;
3629;SDS011;1831;53.626;10.012;2022-08-21T08:34:29;7.27;;;3.50;;
3629;SDS011;1831;53.626;10.012;2022-08-21T08:36:56;9.57;;;3.70;;
3629;SDS011;1831;53.626;10.012;2022-08-21T08:39:25;10.60;;;3.53;;
3629;SDS011;1831;53.626;10.012;2022-08-21T08:41:53;11.50;;;3.50;;
3629;SDS011;1831;53.626;10.012;2022-08-21T08:44:27;6.80;;;2.50;;
3629;SDS011;1831;53.626;10.012;2022-08-21T08:46:54;12.10;;;3.60;;
3629;SDS011;1831;53.626;10.012;2022-08-21T08:49:26;7.37;;;2.80;;
3629;SDS011;1831;53.626;10.012;2022-08-21T08:51:57;6.20;;;2.60;;
3629;SDS011;1831;53.626;10.012;2022-08-21T08:54:29;9.40;;;3.20;;
3629;SDS011;1831;53.626;10.012;2022-08-21T08:57:02;8.27;;;3.17;;
3629;SDS011;1831;53.626;10.012;2022-08-21T08:59:34;7.33;;;2.83;;
3629;SDS011;1831;53.626;10.012;2022-08-21T09:02:05;9.40;;;2.93;;
3629;SDS011;1831;53.626;10.012;2022-08-21T09:04:35;8.17;;;3.47;;
3629;SDS011;1831;53.626;10.012;2022-08-21T09:07:07;8.70;;;3.43;;
3629;SDS011;1831;53.626;10.012;2022-08-21T09:09:46;6.13;;;2.77;;
3629;SDS011;1831;53.626;10.012;2022-08-21T09:12:25;11.23;;;3.33;;
3629;SDS011;1831;53.626;10.012;2022-08-21T09:15:06;12.20;;;4.10;;
3629;SDS011;1831;53.626;10.012;2022-08-21T09:17:46;9.00;;;3.90;;
3629;SDS011;1831;53.626;10.012;2022-08-21T09:20:27;9.60;;;3.50;;
3629;SDS011;1831;53.626;10.012;2022-08-21T09:23:05;10.43;;;3.70;;
3629;SDS011;1831;53.626;10.012;2022-08-21T09:25:49;8.70;;;3.43;;
3629;SDS011;1831;53.626;10.012;2022-08-21T09:28:25;9.47;;;3.40;;
3629;SDS011;1831;53.626;10.012;2022-08-21T09:30:54;6.87;;;3.00;;
3629;SDS011;1831;53.626;10.012;2022-08-21T09:33:23;8.67;;;4.07;;
3629;SDS011;1831;53.626;10.012;2022-08-21T09:35:50;10.83;;;3.60;;
3629;SDS011;1831;53.626;10.012;2022-08-21T09:38:24;9.83;;;3.93;;
3629;SDS011;1831;53.626;10.012;2022-08-21T09:40:57;8.37;;;3.27;;
3629;SDS011;1831;53.626;10.012;2022-08-21T09:43:26;10.40;;;3.90;;
3629;SDS011;1831;53.626;10.012;2022-08-21T09:46:03;10.77;;;3.37;;
3629;SDS011;1831;53.626;10.012;2022-08-21T09:48:39;7.47;;;3.60;;
3629;SDS011;1831;53.626;10.012;2022-08-21T09:51:12;5.70;;;3.63;;
3629;SDS011;1831;53.626;10.012;2022-08-21T09:53:42;7.97;;;3.00;;
3629;SDS011;1831;53.626;10.012;2022-08-21T09:56:21;7.50;;;3.10;;
3629;SDS011;1831;53.626;10.012;2022-08-21T09:59:20;9.70;;;3.50;;
3629;SDS011;1831;53.626;10.012;2022-08-21T10:01:55;6.67;;;3.30;;
3629;SDS011;1831;53.626;10.012;2022-08-21T10:04:23;9.93;;;3.77;;
3629;SDS011;1831;53.626;10.012;2022-08-21T10:06:54;11.00;;;3.97;;
3629;SDS011;1831;53.626;10.012;2022-08-21T10:09:21;7.40;;;3.87;;
3629;SDS011;1831;53.626;10.012;2022-08-21T10:11:51;7.33;;;3.83;;
3629;SDS011;1831;53.626;10.012;2022-08-21T10:14:41;7.13;;;3.10;;
3629;SDS011;1831;53.626;10.012;2022-08-21T10:17:17;7.43;;;3.60;;
3629;SDS011;1831;53.626;10.012;2022-08-21T10:19:53;8.70;;;4.63;;
3629;SDS011;1831;53.626;10.012;2022-08-21T10:22:29;9.07;;;3.50;;
3629;SDS011;1831;53.626;10.012;2022-08-21T10:25:06;9.03;;;4.27;;
3629;SDS011;1831;53.626;10.012;2022-08-21T10:27:44;11.60;;;3.70;;
3629;SDS011;1831;53.626;10.012;2022-08-21T10:30:19;6.97;;;3.97;;
3629;SDS011;1831;53.626;10.012;2022-08-21T10:32:57;6.53;;;3.60;;
3629;SDS011;1831;53.626;10.012;2022-08-21T10:35:35;6.37;;;3.90;;
3629;SDS011;1831;53.626;10.012;2022-08-21T10:41:08;9.70;;;4.20;;
3629;SDS011;1831;53.626;10.012;2022-08-21T10:43:47;8.23;;;4.17;;
3629;SDS011;1831;53.626;10.012;2022-08-21T10:46:24;9.53;;;3.30;;
3629;SDS011;1831;53.626;10.012;2022-08-21T10:49:02;7.40;;;2.90;;
3629;SDS011;1831;53.626;10.012;2022-08-21T10:51:40;7.03;;;3.00;;
3629;SDS011;1831;53.626;10.012;2022-08-21T10:54:18;7.93;;;2.90;;
3629;SDS011;1831;53.626;10.012;2022-08-21T10:56:56;6.17;;;3.10;;
3629;SDS011;1831;53.626;10.012;2022-08-21T10:59:31;8.80;;;3.73;;
3629;SDS011;1831;53.626;10.012;2022-08-21T11:02:08;7.17;;;2.80;;
3629;SDS011;1831;53.626;10.012;2022-08-21T11:04:48;7.07;;;2.80;;
3629;SDS011;1831;53.626;10.012;2022-08-21T11:07:22;9.10;;;2.90;;
3629;SDS011;1831;53.626;10.012;2022-08-21T11:09:56;6.67;;;2.50;;
3629;SDS011;1831;53.626;10.012;2022-08-21T11:12:28;6.73;;;2.50;;
3629;SDS011;1831;53.626;10.012;2022-08-21T11:15:03;6.00;;;2.50;;
3629;SDS011;1831;53.626;10.012;2022-08-21T11:17:39;5.43;;;2.60;;
3629;SDS011;1831;53.626;10.012;2022-08-21T11:20:12;6.93;;;3.07;;
3629;SDS011;1831;53.626;10.012;2022-08-21T11:22:54;6.67;;;2.57;;
3629;SDS011;1831;53.626;10.012;2022-08-21T11:25:27;9.53;;;2.33;;
3629;SDS011;1831;53.626;10.012;2022-08-21T11:28:00;7.27;;;2.93;;
3629;SDS011;1831;53.626;10.012;2022-08-21T11:30:37;5.43;;;2.70;;
3629;SDS011;1831;53.626;10.012;2022-08-21T11:33:11;5.30;;;2.90;;
3629;SDS011;1831;53.626;10.012;2022-08-21T11:35:50;5.77;;;2.60;;
3629;SDS011;1831;53.626;10.012;2022-08-21T11:38:22;7.73;;;2.77;;
3629;SDS011;1831;53.626;10.012;2022-08-21T11:41:02;6.40;;;2.57;;
3629;SDS011;1831;53.626;10.012;2022-08-21T11:43:41;4.80;;;2.17;;
3629;SDS011;1831;53.626;10.012;2022-08-21T11:46:16;5.40;;;3.03;;
3629;SDS011;1831;53.626;10.012;2022-08-21T11:48:53;5.80;;;2.60;;
3629;SDS011;1831;53.626;10.012;2022-08-21T11:51:30;8.90;;;4.00;;
3629;SDS011;1831;53.626;10.012;2022-08-21T11:54:00;5.10;;;2.83;;
3629;SDS011;1831;53.626;10.012;2022-08-21T11:56:34;7.90;;;3.20;;
3629;SDS011;1831;53.626;10.012;2022-08-21T11:59:08;7.13;;;3.00;;
3629;SDS011;1831;53.626;10.012;2022-08-21T12:01:40;11.13;;;5.30;;
3629;SDS011;1831;53.626;10.012;2022-08-21T12:04:16;5.10;;;2.50;;
3629;SDS011;1831;53.626;10.012;2022-08-21T12:06:48;5.73;;;2.40;;
3629;SDS011;1831;53.626;10.012;2022-08-21T12:09:29;6.43;;;2.43;;
3629;SDS011;1831;53.626;10.012;2022-08-21T12:12:01;5.20;;;2.30;;
3629;SDS011;1831;53.626;10.012;2022-08-21T12:14:36;8.83;;;3.40;;
3629;SDS011;1831;53.626;10.012;2022-08-21T12:17:07;7.60;;;2.90;;
3629;SDS011;1831;53.626;10.012;2022-08-21T12:19:42;7.00;;;3.37;;
3629;SDS011;1831;53.626;10.012;2022-08-21T12:22:11;5.57;;;2.67;;
3629;SDS011;1831;53.626;10.012;2022-08-21T12:24:40;6.87;;;3.37;;
3629;SDS011;1831;53.626;10.012;2022-08-21T12:27:21;5.83;;;3.10;;
3629;SDS011;1831;53.626;10.012;2022-08-21T12:29:52;5.33;;;2.60;;
3629;SDS011;1831;53.626;10.012;2022-08-21T12:32:24;5.60;;;2.50;;
3629;SDS011;1831;53.626;10.012;2022-08-21T12:34:55;6.70;;;3.30;;
3629;SDS011;1831;53.626;10.012;2022-08-21T12:37:30;5.07;;;2.80;;
3629;SDS011;1831;53.626;10.012;2022-08-21T12:40:09;7.17;;;3.60;;
3629;SDS011;1831;53.626;10.012;2022-08-21T12:42:41;4.73;;;2.43;;
3629;SDS011;1831;53.626;10.012;2022-08-21T12:45:13;7.80;;;3.13;;
3629;SDS011;1831;53.626;10.012;2022-08-21T12:47:47;6.87;;;2.77;;
3629;SDS011;1831;53.626;10.012;2022-08-21T12:50:17;6.83;;;2.70;;
3629;SDS011;1831;53.626;10.012;2022-08-21T12:52:48;5.40;;;2.10;;
3629;SDS011;1831;53.626;10.012;2022-08-21T12:55:26;5.23;;;2.70;;
3629;SDS011;1831;53.626;10.012;2022-08-21T12:57:56;7.27;;;2.57;;
3629;SDS011;1831;53.626;10.012;2022-08-21T13:00:25;4.90;;;2.97;;
3629;SDS011;1831;53.626;10.012;2022-08-21T13:02:54;6.70;;;3.20;;
3629;SDS011;1831;53.626;10.012;2022-08-21T13:05:27;8.63;;;3.00;;
3629;SDS011;1831;53.626;10.012;2022-08-21T13:07:56;5.53;;;2.87;;
3629;SDS011;1831;53.626;10.012;2022-08-21T13:10:25;5.93;;;2.70;;
3629;SDS011;1831;53.626;10.012;2022-08-21T13:12:54;6.50;;;2.33;;
3629;SDS011;1831;53.626;10.012;2022-08-21T13:15:25;5.40;;;2.37;;
3629;SDS011;1831;53.626;10.012;2022-08-21T13:17:55;4.93;;;2.13;;
3629;SDS011;1831;53.626;10.012;2022-08-21T13:20:27;6.60;;;2.10;;
3629;SDS011;1831;53.626;10.012;2022-08-21T13:22:55;3.70;;;2.00;;
3629;SDS011;1831;53.626;10.012;2022-08-21T13:25:25;5.07;;;2.10;;
3629;SDS011;1831;53.626;10.012;2022-08-21T13:27:58;4.30;;;2.10;;
3629;SDS011;1831;53.626;10.012;2022-08-21T13:30:27;6.20;;;1.87;;
3629;SDS011;1831;53.626;10.012;2022-08-21T13:32:57;4.23;;;2.00;;
3629;SDS011;1831;53.626;10.012;2022-08-21T13:35:27;3.70;;;2.00;;
3629;SDS011;1831;53.626;10.012;2022-08-21T13:37:56;5.17;;;2.23;;
3629;SDS011;1831;53.626;10.012;2022-08-21T13:40:27;4.23;;;2.00;;
3629;SDS011;1831;53.626;10.012;2022-08-21T13:43:09;6.00;;;1.80;;
3629;SDS011;1831;53.626;10.012;2022-08-21T13:45:38;8.30;;;1.90;;
3629;SDS011;1831;53.626;10.012;2022-08-21T13:48:11;3.57;;;1.60;;
3629;SDS011;1831;53.626;10.012;2022-08-21T13:50:39;7.30;;;2.33;;
3629;SDS011;1831;53.626;10.012;2022-08-21T13:53:19;5.27;;;2.30;;
3629;SDS011;1831;53.626;10.012;2022-08-21T13:55:48;4.47;;;1.80;;
3629;SDS011;1831;53.626;10.012;2022-08-21T13:58:23;4.10;;;1.77;;
3629;SDS011;1831;53.626;10.012;2022-08-21T14:00:51;4.27;;;1.63;;
3629;SDS011;1831;53.626;10.012;2022-08-21T14:03:26;4.43;;;1.53;;
3629;SDS011;1831;53.626;10.012;2022-08-21T14:05:59;3.63;;;1.70;;
3629;SDS011;1831;53.626;10.012;2022-08-21T14:08:28;6.00;;;2.10;;
3629;SDS011;1831;53.626;10.012;2022-08-21T14:10:59;4.73;;;1.77;;
3629;SDS011;1831;53.626;10.012;2022-08-21T14:13:36;7.30;;;2.27;;
3629;SDS011;1831;53.626;10.012;2022-08-21T14:16:14;5.10;;;2.13;;
3629;SDS011;1831;53.626;10.012;2022-08-21T14:18:45;8.33;;;1.67;;
3629;SDS011;1831;53.626;10.012;2022-08-21T14:21:13;4.80;;;1.60;;
3629;SDS011;1831;53.626;10.012;2022-08-21T14:23:58;4.40;;;1.50;;
3629;SDS011;1831;53.626;10.012;2022-08-21T14:26:29;4.43;;;1.67;;
3629;SDS011;1831;53.626;10.012;2022-08-21T14:28:59;3.97;;;1.60;;
3629;SDS011;1831;53.626;10.012;2022-08-21T14:31:28;3.90;;;1.40;;
3629;SDS011;1831;53.626;10.012;2022-08-21T14:33:59;3.87;;;1.50;;
3629;SDS011;1831;53.626;10.012;2022-08-21T14:36:26;3.60;;;1.10;;
3629;SDS011;1831;53.626;10.012;2022-08-21T14:38:53;4.03;;;1.50;;
3629;SDS011;1831;53.626;10.012;2022-08-21T14:41:21;4.80;;;1.57;;
3629;SDS011;1831;53.626;10.012;2022-08-21T14:43:52;4.20;;;1.57;;
3629;SDS011;1831;53.626;10.012;2022-08-21T14:46:21;3.20;;;1.30;;
3629;SDS011;1831;53.626;10.012;2022-08-21T14:48:51;5.23;;;1.30;;
3629;SDS011;1831;53.626;10.012;2022-08-21T14:51:20;4.10;;;1.40;;
3629;SDS011;1831;53.626;10.012;2022-08-21T14:53:47;6.50;;;1.33;;
3629;SDS011;1831;53.626;10.012;2022-08-21T14:56:14;3.33;;;1.70;;
3629;SDS011;1831;53.626;10.012;2022-08-21T14:58:42;3.10;;;1.30;;
3629;SDS011;1831;53.626;10.012;2022-08-21T15:01:12;4.13;;;1.80;;
3629;SDS011;1831;53.626;10.012;2022-08-21T15:03:40;5.30;;;1.63;;
3629;SDS011;1831;53.626;10.012;2022-08-21T15:06:08;5.63;;;1.40;;
3629;SDS011;1831;53.626;10.012;2022-08-21T15:08:36;4.60;;;1.60;;
3629;SDS011;1831;53.626;10.012;2022-08-21T15:11:05;5.50;;;1.73;;
3629;SDS011;1831;53.626;10.012;2022-08-21T15:13:33;3.47;;;1.33;;
3629;SDS011;1831;53.626;10.012;2022-08-21T15:16:00;3.07;;;1.27;;
3629;SDS011;1831;53.626;10.012;2022-08-21T15:18:27;3.70;;;1.40;;
3629;SDS011;1831;53.626;10.012;2022-08-21T15:20:55;6.37;;;1.80;;
3629;SDS011;1831;53.626;10.012;2022-08-21T15:23:23;9.33;;;1.87;;
3629;SDS011;1831;53.626;10.012;2022-08-21T15:25:51;4.03;;;1.63;;
3629;SDS011;1831;53.626;10.012;2022-08-21T15:28:19;3.60;;;1.40;;
3629;SDS011;1831;53.626;10.012;2022-08-21T15:30:47;5.80;;;1.73;;